Melbourne, FL (32937)

2:59 AM EDT on August 31, 2014 (GMT -0400)
KFLINDIA5 | Change Station
CLOSE
Current Station
Personal Weather Station
Location: Indian Harbour Beach, FL
Elevation: 30 ft
Nearby Weather Stations

Elev 30 ft 28.15 °N, 80.59 °W | Updated 4 minutes ago

Clear
Clear
80.1 °F
Feels Like 85 °F
N
0.0
Wind Variable Wind from SW
Gusts 7.0 mph

Today
High -- | Low -- °F
--% Chance of Precip.
Yesterday
High -- | Low -- °F
Precip. -- in
7:00 AM 7:44 PM
Waxing Crescent, 28% visible
Pressure 30.14 in
Visibility 10.0 miles
Clouds Clear
Heat Index 85 °F
Dew Point 74 °F
Humidity 83%
Rainfall 0.00 in
Snow Depth Not available.
UV 0 out of 12
Pollen 7.20 out of 12
Air Quality Not available.
Flu Activity Not available.
METAR KCOF 310658Z AUTO 15004KT 10SM CLR 27/23 A3013 RMK AO2 SLP207 T02720233

More Conditions Fewer Conditions

Pressure 30.14 in
Visibility 10.0 miles
Clouds Clear
Heat Index 85 °F
Dew Point 74 °F
Humidity 83%
Rainfall 0.00 in
Snow Depth Not available.
UV 0 out of 12
Pollen 7.20 out of 12
Air Quality Not available.
Flu Activity Not available.
METAR KCOF 310658Z AUTO 15004KT 10SM CLR 27/23 A3013 RMK AO2 SLP207 T02720233

More Conditions Fewer Conditions

Nowcast | as of 10:37 PM EDT on August 30, 2014

Isolated showers over the Atlantic will move toward the coast south of the cape overnight. A few showers may move onshore along the Treasure Coast beaches after midnight and tend to dissipate as they move further onshore. Additional details...including graphics are available online at: http://www.Srh.NOAA.Gov/mlb/blog.Php

×

10-Day Weather Forecast

Almanac

Astronomy

Aug. 31, 2014 Rise Set
Actual Time 7:00 AM EDT 7:44 PM EDT
Civil Twilight 6:36 AM EDT 8:08 PM EDT
Nautical Twilight 6:08 AM EDT 8:36 PM EDT
Astronomical Twilight 5:39 AM EDT 9:05 PM EDT
Moon 12:14 PM EDT 11:30 PM EDT
Length of Visible Light 13h 32m
Length of Day
12h 44m
Tomorrow will be 1m 36s shorter.
Waxing Crescent, 28% of the Moon is Illuminated
Today
Waxing Crescent
Sep 2
First Quarter
Sep 8
Full
Sep 15
Last Quarter
Sep 24
New

Today's Extremes

State Highs State Lows

Community

WunderPhotos

Upload Photos

1,748,800 photos uploaded!

Nearby

Snow Depth

Station Depth Elevation
No new snow has been reported.

Earthquake Activity

City Distance Mag. Time & Date
No recent earthquake activity has been reported nearby.
Minimum magnitude displayed is 2.5.

Coastal Water Temperatures

Place Temperature
Trident Pier, FL 84.9 °F
Fort Myers, FL 87.1 °F
Lake Worth, FL 87.1 °F

Nearby Weather Stations